Patriot — WDF5853 — position and weather

sailwx.info

Track history (hours):
 
Tides and Currents Weather Stations Pressure Air Temp Water Temp Dewpoint Dewpoint Depression Visibility Wind Speed Wind Dir Waves Ship Positions

Patriot

Owner: Adventure Sailing Charters, LLC, Ashaway, RI. More information available from US FCC via Universal Licensing System and Coast Guard Vessel Documentation Center.

Last reported at 2016-Feb-11 15:33 UTC. Time now 2016-Jul-25 04:21 UTC.
Position N 17°01' W 061°46'.
Warning: this ship's position is months out of date.

Length 14 m.

Type: Sailing vessel. MMSI: 367467920.

Date/timePositionNaut miles runAvg speedWind from/ knotsBaromVisibWave heightAir tempDewpointWater temp
2016-Feb-11 15:33N 17°01' W 061°46'0 0.0
2016-Feb-11 14:33N 17°01' W 061°47'0 0.0
2016-Feb-11 13:33N 17°01' W 061°47'0 0.0
2016-Feb-11 12:33N 17°01' W 061°46'0 0.0
2016-Feb-11 11:33N 17°01' W 061°46'0 0.0
2016-Feb-11 10:33N 17°01' W 061°47'0 0.0
2016-Feb-11 09:33N 17°01' W 061°46'0 0.0
2016-Feb-11 08:33N 17°01' W 061°46'0 0.0
2016-Feb-11 07:33N 17°01' W 061°46'0 0.0
2016-Feb-11 06:33N 17°01' W 061°47'0 0.0
2016-Feb-11 05:33N 17°01' W 061°47'0 0.0
2016-Feb-11 04:33N 17°01' W 061°46'0 0.0
2016-Feb-11 03:33N 17°01' W 061°47'0 0.0
2016-Feb-11 02:33N 17°01' W 061°47'0 0.0
2016-Feb-11 01:33N 17°01' W 061°47'0 0.0
2016-Feb-11 00:33N 17°01' W 061°46'0 0.0
2016-Feb-10 23:33N 17°01' W 061°46'0 0.0
2016-Feb-10 22:33N 17°01' W 061°47'0 0.0
2016-Feb-10 21:33N 17°01' W 061°46'0 0.0
2016-Feb-10 20:33N 17°01' W 061°46'0 0.0
2016-Feb-10 19:33N 17°01' W 061°47'0 0.0
2016-Feb-10 18:33N 17°01' W 061°46'0 0.0
2016-Feb-10 17:33N 17°01' W 061°46'0 0.0
2016-Feb-10 16:33N 17°01' W 061°46'0 0.0
2016-Feb-10 15:30N 17°01' W 061°47'0 0.0
2016-Feb-10 14:33N 17°01' W 061°47'0 0.0
2016-Feb-10 13:33N 17°01' W 061°46'0 0.0
2016-Feb-10 12:33N 17°01' W 061°46'0 0.0
2016-Feb-10 11:33N 17°01' W 061°47'0 0.0
2016-Feb-10 10:33N 17°01' W 061°46'0 0.0
2016-Feb-10 09:33N 17°01' W 061°46'0 0.0
2016-Feb-10 08:33N 17°01' W 061°47'0 0.0
2016-Feb-10 07:33N 17°01' W 061°46'0 0.0
2016-Feb-10 06:33N 17°01' W 061°46'0 0.0
2016-Feb-10 05:33N 17°01' W 061°47'0 0.0
2016-Feb-10 04:33N 17°01' W 061°47'0 0.0
2016-Feb-10 03:33N 17°01' W 061°46'0 0.0
2016-Feb-10 02:33N 17°01' W 061°47'0 0.0
2016-Feb-10 01:33N 17°01' W 061°47'0 0.0
2016-Feb-10 00:33N 17°01' W 061°46'0 0.0
2016-Feb-09 23:33N 17°01' W 061°47'0 0.0
2016-Feb-09 22:33N 17°01' W 061°46'0 0.0
2016-Feb-09 20:23N 17°01' W 061°46'0 0.5
2016-Feb-09 19:33N 17°01' W 061°47'4 3.7
2016-Feb-09 18:33N 16°59' W 061°50'5 4.5
2016-Feb-09 17:33N 16°57' W 061°54'4 4.1
2016-Feb-09 16:33N 17°00' W 061°56'5 4.7
2016-Feb-09 15:33N 17°05' W 061°56'2 0.1
2016-Feb-08 18:04N 17°05' W 061°54'2 3.9
2016-Feb-08 17:33N 17°06' W 061°56'6 6.4
2016-Feb-08 16:33N 17°12' W 061°57'7 6.7
2016-Feb-08 15:32N 17°19' W 061°59'7 7.4
2016-Feb-08 14:33N 17°26' W 061°60'7 7.0
2016-Feb-08 13:31N 17°33' W 061°60'4 3.1
2016-Feb-08 12:13N 17°35' W 062°04'4 6.6
2016-Feb-08 11:33N 17°32' W 062°08'  
2016-Feb-05 01:17N 18°24' W 064°28'5 6.6
2016-Feb-05 00:33N 18°25' W 064°33'  
2016-Feb-02 18:22N 18°24' W 064°38'3 0.1
2016-Feb-01 21:03N 18°22' W 064°36'3 5.9
2016-Feb-01 20:30N 18°24' W 064°34'  
Track history (hours):
 
Tides and Currents Weather Stations Pressure Air Temp Water Temp Dewpoint Dewpoint Depression Visibility Wind Speed Wind Dir Waves Ship Positions

Patriot

Owner: Adventure Sailing Charters, LLC, Ashaway, RI. More information available from US FCC via Universal Licensing System and Coast Guard Vessel Documentation Center.

Last reported at 2016-Feb-11 15:33 UTC. Time now 2016-Jul-25 04:21 UTC.
Position N 17°01' W 061°46'.
Warning: this ship's position is months out of date.

Length 14 m.

Type: Sailing vessel. MMSI: 367467920.

Date/timePositionNaut miles runAvg speedWind from/ knotsBaromVisibWave heightAir tempDewpointWater temp
2016-Feb-11 15:33N 17°01' W 061°46'0 0.0
2016-Feb-11 14:33N 17°01' W 061°47'0 0.0
2016-Feb-11 13:33N 17°01' W 061°47'0 0.0
2016-Feb-11 12:33N 17°01' W 061°46'0 0.0
2016-Feb-11 11:33N 17°01' W 061°46'0 0.0
2016-Feb-11 10:33N 17°01' W 061°47'0 0.0
2016-Feb-11 09:33N 17°01' W 061°46'0 0.0
2016-Feb-11 08:33N 17°01' W 061°46'0 0.0
2016-Feb-11 07:33N 17°01' W 061°46'0 0.0
2016-Feb-11 06:33N 17°01' W 061°47'0 0.0
2016-Feb-11 05:33N 17°01' W 061°47'0 0.0
2016-Feb-11 04:33N 17°01' W 061°46'0 0.0
2016-Feb-11 03:33N 17°01' W 061°47'0 0.0
2016-Feb-11 02:33N 17°01' W 061°47'0 0.0
2016-Feb-11 01:33N 17°01' W 061°47'0 0.0
2016-Feb-11 00:33N 17°01' W 061°46'0 0.0
2016-Feb-10 23:33N 17°01' W 061°46'0 0.0
2016-Feb-10 22:33N 17°01' W 061°47'0 0.0
2016-Feb-10 21:33N 17°01' W 061°46'0 0.0
2016-Feb-10 20:33N 17°01' W 061°46'0 0.0
2016-Feb-10 19:33N 17°01' W 061°47'0 0.0
2016-Feb-10 18:33N 17°01' W 061°46'0 0.0
2016-Feb-10 17:33N 17°01' W 061°46'0 0.0
2016-Feb-10 16:33N 17°01' W 061°46'0 0.0
2016-Feb-10 15:30N 17°01' W 061°47'0 0.0
2016-Feb-10 14:33N 17°01' W 061°47'0 0.0
2016-Feb-10 13:33N 17°01' W 061°46'0 0.0
2016-Feb-10 12:33N 17°01' W 061°46'0 0.0
2016-Feb-10 11:33N 17°01' W 061°47'0 0.0
2016-Feb-10 10:33N 17°01' W 061°46'0 0.0
2016-Feb-10 09:33N 17°01' W 061°46'0 0.0
2016-Feb-10 08:33N 17°01' W 061°47'0 0.0
2016-Feb-10 07:33N 17°01' W 061°46'0 0.0
2016-Feb-10 06:33N 17°01' W 061°46'0 0.0
2016-Feb-10 05:33N 17°01' W 061°47'0 0.0
2016-Feb-10 04:33N 17°01' W 061°47'0 0.0
2016-Feb-10 03:33N 17°01' W 061°46'0 0.0
2016-Feb-10 02:33N 17°01' W 061°47'0 0.0
2016-Feb-10 01:33N 17°01' W 061°47'0 0.0
2016-Feb-10 00:33N 17°01' W 061°46'0 0.0
2016-Feb-09 23:33N 17°01' W 061°47'0 0.0
2016-Feb-09 22:33N 17°01' W 061°46'0 0.0
2016-Feb-09 20:23N 17°01' W 061°46'0 0.5
2016-Feb-09 19:33N 17°01' W 061°47'4 3.7
2016-Feb-09 18:33N 16°59' W 061°50'5 4.5
2016-Feb-09 17:33N 16°57' W 061°54'4 4.1
2016-Feb-09 16:33N 17°00' W 061°56'5 4.7
2016-Feb-09 15:33N 17°05' W 061°56'2 0.1
2016-Feb-08 18:04N 17°05' W 061°54'2 3.9
2016-Feb-08 17:33N 17°06' W 061°56'6 6.4
2016-Feb-08 16:33N 17°12' W 061°57'7 6.7
2016-Feb-08 15:32N 17°19' W 061°59'7 7.4
2016-Feb-08 14:33N 17°26' W 061°60'7 7.0
2016-Feb-08 13:31N 17°33' W 061°60'4 3.1
2016-Feb-08 12:13N 17°35' W 062°04'4 6.6
2016-Feb-08 11:33N 17°32' W 062°08'  
2016-Feb-05 01:17N 18°24' W 064°28'5 6.6
2016-Feb-05 00:33N 18°25' W 064°33'  
2016-Feb-02 18:22N 18°24' W 064°38'3 0.1
2016-Feb-01 21:03N 18°22' W 064°36'3 5.9
2016-Feb-01 20:30N 18°24' W 064°34'  

Dump ship's entire track history